»·PEaware :: ABW6788 FACT-KMIA

ABW6788 :: FACT-KMIA

FLIGHT INFORMATION

Flight Status: Arrived
Operator: Unknown
More flights by this operator :: More flights under this callsign
Pilot: Drew L. (13237)
Aircraft: BOEING 747-400 (WINGLETS)
(B744)
More flights by this aircraft type
Origin: FACT Cape Town Intl
South Africa
Destination: KMIA Miami Intl
United States
More flights between these airports :: More routes between these airports
Route: IMSO1C IMSOM OKDOG 31S010E 27S000E/N0510F320 22S010W 16S020W/N0510F340 09S030W VURBI/N0507F360 EGDUG VADIR PULOB UM791 PANER/N0501F380 UM791 DOLRO/N0501F370 UM791 BGI/N0499F380 UR750 BNE GESSO PIXAR/N0493F400 UA636 TUMAR/N0498F240 A636 ALBBE/N0494F400 FORST WSSKY HODGY FLIPR6
File this flight plan on PilotEdge
Remarks: PBN / A1B1D1O1S2 DOF / 181110 REG / N487SB EET / FAJO0032 31S010E0107 27S000E0219 SBAO0338 16S020W0503 09S030W0632 SBRE0701 SBAZ0812 SOOO0925 SMPM1008 TTZP1015 TJZS1131 MDCS1216 MTEG1245 KZMA1249 OPR / ABW PER / D RALT / FNLU SBRF RMK / TCAS SIMBRIEF
Altitude:
(Current/Filed)
30,000ft
Speed:
(Current/Filed)
511kts
Departed: 09-Nov-18 09:25 PM
Arrived: 10-Nov-18 11:46 AM
Distance/Time
Traveled:
6661nm/14:21
Distance/Time
To Go:
Arrived

Flight Plot

Page will automatically refresh every two minutes.

Flight plan parsing failed; only flown route is shown


Map Options




Map Legend


Flown Route
Filed Route
Departure Airport
Arrival Airport
Navaid (VOR, NDB)
Fix

Horizontal Profiles

Position Reports

Time Latitude Longitude Heading Altitude Ground
Speed
09-Nov-18 21:03 -33.970536 18.598165 255 164ft 0kts
09-Nov-18 21:04 -33.970536 18.598165 255 164ft 0kts
09-Nov-18 21:05 -33.970536 18.598165 255 164ft 0kts
09-Nov-18 21:06 -33.970536 18.598165 255 164ft 0kts
09-Nov-18 21:07 -33.970536 18.598165 255 164ft 0kts
09-Nov-18 21:08 -33.970536 18.598165 255 164ft 0kts
09-Nov-18 21:09 -33.970536 18.598165 255 164ft 0kts
09-Nov-18 21:10 -33.970536 18.598165 255 164ft 0kts
09-Nov-18 21:11 -33.970536 18.598165 255 164ft 0kts
09-Nov-18 21:12 -33.970536 18.598165 255 164ft 0kts
09-Nov-18 21:13 -33.970536 18.598165 255 164ft 0kts
09-Nov-18 21:14 -33.970536 18.598165 255 164ft 0kts
09-Nov-18 21:15 -33.970536 18.598165 255 164ft 0kts
09-Nov-18 21:16 -33.970536 18.598165 255 164ft 0kts
09-Nov-18 21:17 -33.970536 18.598165 255 164ft 0kts
09-Nov-18 21:18 -33.970536 18.598165 255 164ft 0kts
09-Nov-18 21:19 -33.970536 18.598165 255 164ft 0kts
09-Nov-18 21:20 -33.970536 18.598165 255 164ft 0kts
09-Nov-18 21:21 -33.970536 18.598165 255 164ft 0kts
09-Nov-18 21:22 -33.970536 18.598165 255 164ft 0kts
09-Nov-18 21:23 -33.970423 18.598680 255 164ft 2kts
09-Nov-18 21:24 -33.970348 18.599026 255 164ft 0kts
09-Nov-18 21:25 -33.969693 18.598593 351 164ft 15kts
09-Nov-18 21:26 -33.962387 18.597226 10 164ft 33kts
09-Nov-18 21:27 -33.960368 18.600260 165 164ft 0kts
09-Nov-18 21:28 -33.983056 18.607486 166 220ft 181kts
09-Nov-18 21:29 -34.037768 18.623526 173 2011ft 222kts
09-Nov-18 21:30 -34.094991 18.595442 228 3672ft 248kts
09-Nov-18 21:31 -34.105421 18.510336 271 5143ft 295kts
09-Nov-18 21:32 -34.101639 18.407530 276 7260ft 315kts
09-Nov-18 21:33 -34.073505 18.306789 297 9587ft 321kts
09-Nov-18 21:34 -34.026955 18.207973 298 10660ft 369kts
09-Nov-18 21:35 -33.972795 18.091410 298 11621ft 417kts
09-Nov-18 21:36 -33.921354 17.964247 288 13704ft 427kts
09-Nov-18 21:37 -33.884731 17.826507 286 15710ft 437kts
09-Nov-18 21:38 -33.846485 17.685161 286 17592ft 448kts
09-Nov-18 21:39 -33.807658 17.541316 286 19259ft 458kts
09-Nov-18 21:40 -33.767650 17.393951 286 20790ft 468kts
09-Nov-18 21:41 -33.726477 17.243971 286 22217ft 477kts
09-Nov-18 21:42 -33.684346 17.091474 286 23465ft 485kts
09-Nov-18 21:43 -33.641236 16.936297 286 24619ft 492kts
09-Nov-18 21:44 -33.597803 16.780815 286 26195ft 487kts
09-Nov-18 21:45 -33.554815 16.627760 285 27818ft 480kts
09-Nov-18 21:46 -33.519401 16.502287 285 29217ft 474kts
09-Nov-18 21:47 -33.470006 16.328178 285 29990ft 471kts
09-Nov-18 21:48 -33.427741 16.180006 285 29989ft 471kts
09-Nov-18 21:49 -33.392252 16.056235 285 29990ft 471kts
09-Nov-18 21:50 -33.349615 15.908194 285 29989ft 470kts
09-Nov-18 21:51 -33.306892 15.760596 285 29990ft 470kts
09-Nov-18 21:52 -33.263916 15.612880 285 29990ft 469kts
09-Nov-18 21:53 -33.220801 15.465419 285 29991ft 470kts
09-Nov-18 21:54 -33.177836 15.318330 285 29991ft 469kts
09-Nov-18 21:55 -33.134477 15.171697 285 29991ft 469kts
09-Nov-18 21:56 -33.090651 15.024593 285 29991ft 469kts
09-Nov-18 21:57 -33.038097 14.882405 291 29992ft 471kts
09-Nov-18 21:58 -32.982214 14.741307 291 30016ft 471kts
09-Nov-18 21:59 -32.926600 14.599804 290 30011ft 470kts
09-Nov-18 22:00 -32.871695 14.458999 290 30012ft 470kts
09-Nov-18 22:01 -32.816124 14.318004 291 30014ft 469kts
09-Nov-18 22:02 -32.760507 14.177665 291 30015ft 470kts
09-Nov-18 22:03 -32.704641 14.037285 291 30017ft 469kts
09-Nov-18 22:04 -32.648818 13.897577 291 30018ft 468kts
09-Nov-18 22:05 -32.592884 13.758153 291 30019ft 468kts
09-Nov-18 22:06 -32.536790 13.618871 291 30021ft 468kts
09-Nov-18 22:07 -32.480525 13.479742 291 30022ft 468kts
09-Nov-18 22:08 -32.424054 13.340660 291 30023ft 468kts
09-Nov-18 22:09 -32.367566 13.202067 291 30024ft 468kts
09-Nov-18 22:10 -32.310938 13.063692 291 30025ft 467kts
09-Nov-18 22:11 -32.254146 12.925453 291 30026ft 467kts
09-Nov-18 22:12 -32.197354 12.787708 291 30029ft 466kts
09-Nov-18 22:13 -32.140426 12.650240 291 30027ft 466kts
09-Nov-18 22:14 -32.083247 12.512643 292 30028ft 467kts
09-Nov-18 22:15 -32.025867 12.375126 292 30028ft 469kts
09-Nov-18 22:16 -31.968154 12.237336 292 30029ft 468kts
09-Nov-18 22:17 -31.910558 12.100344 292 29989ft 468kts
09-Nov-18 22:18 -31.852511 11.962763 292 29991ft 468kts
09-Nov-18 22:19 -31.794499 11.825856 292 29991ft 468kts
09-Nov-18 22:20 -31.736282 11.688950 293 29991ft 468kts
09-Nov-18 22:21 -31.677806 11.551959 293 29991ft 469kts
09-Nov-18 22:22 -31.619164 11.415088 293 29992ft 469kts
09-Nov-18 22:23 -31.560330 11.278280 293 29993ft 470kts
09-Nov-18 22:24 -31.501189 11.141274 294 29993ft 470kts
09-Nov-18 22:25 -31.441991 11.004643 294 29993ft 470kts
09-Nov-18 22:26 -31.382740 10.868397 294 29994ft 470kts
09-Nov-18 22:27 -31.323294 10.732200 294 29994ft 470kts
09-Nov-18 22:28 -31.263680 10.596118 294 29995ft 470kts
09-Nov-18 22:29 -31.203954 10.460278 294 29995ft 470kts
09-Nov-18 22:30 -31.143952 10.324151 294 29996ft 470kts
09-Nov-18 22:31 -31.084025 10.188467 295 29995ft 471kts
09-Nov-18 22:32 -31.023560 10.052831 295 29996ft 472kts
09-Nov-18 22:33 -30.969065 9.914027 290 29996ft 470kts
09-Nov-18 22:34 -30.919971 9.772374 291 29994ft 470kts
09-Nov-18 22:35 -30.870290 9.631385 291 29997ft 472kts
09-Nov-18 22:36 -30.820979 9.489849 291 29997ft 471kts
09-Nov-18 22:37 -30.771290 9.349066 291 29997ft 471kts
09-Nov-18 22:38 -30.721213 9.208040 291 29997ft 472kts
09-Nov-18 22:39 -30.670834 9.066788 291 29997ft 472kts
09-Nov-18 22:40 -30.620539 8.926341 291 29996ft 472kts
09-Nov-18 22:41 -30.569925 8.785570 292 29996ft 472kts
09-Nov-18 22:42 -30.519178 8.645012 292 29999ft 473kts
09-Nov-18 22:43 -30.468269 8.504594 292 29999ft 473kts
09-Nov-18 22:44 -30.417026 8.363802 292 29999ft 473kts
09-Nov-18 22:45 -30.365603 8.223074 292 29999ft 475kts
09-Nov-18 22:46 -30.314030 8.082493 293 29999ft 474kts
09-Nov-18 22:47 -30.262276 7.941980 293 29999ft 475kts
09-Nov-18 22:48 -30.210451 7.801805 293 29999ft 474kts
09-Nov-18 22:49 -30.158409 7.661632 293 30000ft 474kts
09-Nov-18 22:50 -30.106074 7.521209 293 30000ft 474kts
09-Nov-18 22:51 -30.053940 7.381865 293 30048ft 473kts
09-Nov-18 22:52 -30.001588 7.242478 293 30056ft 472kts
09-Nov-18 22:53 -29.949004 7.103009 294 30056ft 475kts
09-Nov-18 22:54 -29.896270 6.963685 294 30056ft 474kts
09-Nov-18 22:55 -29.843384 6.824492 294 30055ft 474kts
09-Nov-18 22:56 -29.790449 6.685698 294 30057ft 473kts
09-Nov-18 22:57 -29.737357 6.547019 294 30056ft 472kts
09-Nov-18 22:58 -29.684378 6.409158 294 30056ft 472kts
09-Nov-18 22:59 -29.631072 6.270964 294 30056ft 471kts
09-Nov-18 23:00 -29.577859 6.133512 294 30056ft 471kts
09-Nov-18 23:01 -29.524451 5.996089 295 30056ft 471kts
09-Nov-18 23:02 -29.470854 5.858663 295 30056ft 472kts
09-Nov-18 23:03 -29.416994 5.721103 295 30055ft 472kts
09-Nov-18 23:04 -29.363029 5.583741 295 30056ft 472kts
09-Nov-18 23:05 -29.309112 5.447052 295 30055ft 472kts
09-Nov-18 23:06 -29.254733 5.309672 295 30055ft 472kts
09-Nov-18 23:07 -29.200271 5.172579 295 30055ft 472kts
09-Nov-18 23:08 -29.145773 5.035892 295 30055ft 473kts
09-Nov-18 23:09 -29.091142 4.899361 296 30055ft 472kts
09-Nov-18 23:10 -29.036222 4.762584 296 30055ft 472kts
09-Nov-18 23:11 -28.981403 4.626576 296 30055ft 472kts
09-Nov-18 23:12 -28.926368 4.490493 296 30055ft 472kts
09-Nov-18 23:13 -28.871198 4.354545 296 30056ft 472kts
09-Nov-18 23:14 -28.815669 4.218252 296 30065ft 473kts
09-Nov-18 23:15 -28.760176 4.082497 296 30065ft 473kts
09-Nov-18 23:16 -28.704525 3.946826 296 30065ft 473kts
09-Nov-18 23:17 -28.648781 3.811406 296 30065ft 472kts
09-Nov-18 23:18 -28.592809 3.675869 297 30064ft 472kts
09-Nov-18 23:19 -28.536671 3.540463 297 30065ft 472kts
09-Nov-18 23:20 -28.480521 3.405452 297 30064ft 472kts
09-Nov-18 23:21 -28.424389 3.270974 297 30064ft 472kts
09-Nov-18 23:22 -28.367920 3.136117 297 30064ft 472kts
09-Nov-18 23:23 -28.311543 3.001975 297 30063ft 471kts
09-Nov-18 23:24 -28.254944 2.867744 297 30063ft 471kts
09-Nov-18 23:25 -28.198198 2.733612 297 30064ft 471kts
09-Nov-18 23:26 -28.141497 2.600040 298 30063ft 471kts
09-Nov-18 23:27 -28.084423 2.466036 298 30063ft 471kts
09-Nov-18 23:28 -28.027341 2.332453 298 30062ft 471kts
09-Nov-18 23:29 -27.970059 2.198857 298 30062ft 472kts
09-Nov-18 23:30 -27.912755 2.065638 298 30062ft 472kts
09-Nov-18 23:31 -27.855207 1.932309 298 30062ft 472kts
09-Nov-18 23:32 -27.797403 1.798819 298 30062ft 472kts
09-Nov-18 23:33 -27.739692 1.665968 298 30062ft 472kts
09-Nov-18 23:34 -27.681762 1.533066 298 30061ft 472kts
09-Nov-18 23:35 -27.623733 1.400359 298 30061ft 472kts
09-Nov-18 23:36 -27.565602 1.267819 298 30061ft 472kts
09-Nov-18 23:37 -27.507239 1.135228 298 30061ft 472kts
09-Nov-18 23:38 -27.448747 1.002729 298 30061ft 472kts
09-Nov-18 23:39 -27.390125 0.870393 298 30049ft 472kts
09-Nov-18 23:40 -27.331376 0.738167 299 30044ft 472kts
09-Nov-18 23:41 -27.272517 0.606125 299 30043ft 471kts
09-Nov-18 23:42 -27.213691 0.474565 299 30044ft 471kts
09-Nov-18 23:43 -27.154834 0.343339 299 30043ft 472kts
09-Nov-18 23:44 -27.095739 0.211489 299 30043ft 472kts
09-Nov-18 23:45 -27.036387 0.080332 299 30043ft 472kts
09-Nov-18 23:46 -26.977130 -0.051005 298 30043ft 474kts
09-Nov-18 23:47 -26.917752 -0.183341 298 30042ft 474kts
09-Nov-18 23:48 -26.858408 -0.315048 298 30042ft 474kts
09-Nov-18 23:49 -26.799371 -0.447128 298 30041ft 474kts
09-Nov-18 23:50 -26.740059 -0.578830 298 30042ft 474kts
09-Nov-18 23:51 -26.680484 -0.710501 298 30042ft 474kts
09-Nov-18 23:52 -26.620693 -0.842203 298 30042ft 474kts
09-Nov-18 23:53 -26.570910 -0.951545 298 30041ft 474kts
09-Nov-18 23:54 -26.501123 -1.104361 298 30041ft 474kts
09-Nov-18 23:55 -26.450887 -1.214034 298 30041ft 475kts
09-Nov-18 23:56 -26.380713 -1.366754 298 30040ft 475kts
09-Nov-18 23:57 -26.320307 -1.497795 298 30040ft 475kts
09-Nov-18 23:58 -26.269767 -1.607123 298 30040ft 475kts
09-Nov-18 23:59 -26.209260 -1.737658 298 30040ft 475kts
10-Nov-18 00:00 -26.148338 -1.868695 298 30040ft 475kts
10-Nov-18 00:01 -26.087508 -1.999145 298 30040ft 475kts
10-Nov-18 00:02 -26.026598 -2.129388 298 30039ft 475kts
10-Nov-18 00:03 -25.965566 -2.259509 298 30039ft 475kts
10-Nov-18 00:04 -25.904315 -2.389690 298 30039ft 475kts
10-Nov-18 00:05 -25.842959 -2.519722 298 30039ft 476kts
10-Nov-18 00:06 -25.781463 -2.649674 298 30038ft 476kts
10-Nov-18 00:07 -25.719690 -2.779867 298 30041ft 476kts
10-Nov-18 00:08 -25.657751 -2.909966 298 30038ft 477kts
10-Nov-18 00:09 -25.595725 -3.039915 297 30037ft 477kts
10-Nov-18 00:10 -25.533521 -3.169830 297 30037ft 478kts
10-Nov-18 00:11 -25.470957 -3.300135 297 30037ft 478kts
10-Nov-18 00:12 -25.408417 -3.430018 297 30037ft 478kts
10-Nov-18 00:13 -25.345821 -3.559647 297 30037ft 478kts
10-Nov-18 00:14 -25.283032 -3.689308 297 30036ft 479kts
10-Nov-18 00:15 -25.220062 -3.818972 297 30036ft 479kts
10-Nov-18 00:16 -25.157014 -3.948429 297 30036ft 479kts
10-Nov-18 00:17 -25.093825 -4.077813 297 30035ft 478kts
10-Nov-18 00:18 -25.030534 -4.207041 297 30035ft 478kts
10-Nov-18 00:19 -24.967300 -4.335806 297 30035ft 478kts
10-Nov-18 00:20 -24.903820 -4.464689 297 30034ft 478kts
10-Nov-18 00:21 -24.840246 -4.593416 297 30030ft 478kts
10-Nov-18 00:22 -24.776559 -4.722018 297 30015ft 478kts
10-Nov-18 00:23 -24.712852 -4.850306 297 30014ft 477kts
10-Nov-18 00:24 -24.649028 -4.978480 297 30014ft 477kts
10-Nov-18 00:25 -24.585247 -5.106246 297 30014ft 476kts
10-Nov-18 00:26 -24.521426 -5.233699 297 30013ft 476kts
10-Nov-18 00:27 -24.457446 -5.361164 297 30013ft 476kts
10-Nov-18 00:28 -24.393540 -5.488108 297 30013ft 475kts
10-Nov-18 00:29 -24.329479 -5.615034 297 30008ft 475kts
10-Nov-18 00:30 -24.265412 -5.741655 297 30034ft 475kts
10-Nov-18 00:31 -24.200969 -5.868663 297 30034ft 476kts
10-Nov-18 00:32 -24.136666 -5.995053 297 30033ft 475kts
10-Nov-18 00:33 -24.072216 -6.121409 297 30032ft 476kts
10-Nov-18 00:34 -24.007711 -6.247556 297 30032ft 475kts
10-Nov-18 00:35 -23.942917 -6.373920 297 30031ft 476kts
10-Nov-18 00:36 -23.878185 -6.499850 297 30031ft 474kts
10-Nov-18 00:37 -23.813376 -6.625606 297 30030ft 474kts
10-Nov-18 00:38 -23.748590 -6.750975 297 30030ft 474kts
10-Nov-18 00:39 -23.683928 -6.875796 297 30029ft 472kts
10-Nov-18 00:40 -23.619289 -7.000260 297 30029ft 472kts
10-Nov-18 00:41 -23.554630 -7.124448 298 30028ft 470kts
10-Nov-18 00:42 -23.489845 -7.248567 298 30028ft 470kts
10-Nov-18 00:43 -23.425261 -7.371993 298 30027ft 469kts
10-Nov-18 00:44 -23.360673 -7.495121 298 30027ft 468kts
10-Nov-18 00:45 -23.295904 -7.618291 298 30026ft 469kts
10-Nov-18 00:46 -23.230896 -7.741620 298 30025ft 469kts
10-Nov-18 00:47 -23.166011 -7.864398 298 30025ft 469kts
10-Nov-18 00:48 -23.100971 -7.987176 298 30025ft 470kts
10-Nov-18 00:49 -23.036037 -8.109467 298 30024ft 466kts
10-Nov-18 00:50 -22.970981 -8.231684 298 30024ft 467kts
10-Nov-18 00:51 -22.905901 -8.353665 298 30024ft 467kts
10-Nov-18 00:52 -22.840601 -8.475751 298 30021ft 468kts
10-Nov-18 00:53 -22.775035 -8.598040 298 30022ft 467kts
10-Nov-18 00:54 -22.709697 -8.719616 298 30022ft 467kts
10-Nov-18 00:55 -22.644237 -8.841136 298 30022ft 467kts
10-Nov-18 00:56 -22.578737 -8.962445 298 30021ft 466kts
10-Nov-18 00:57 -22.513371 -9.083236 298 30020ft 465kts
10-Nov-18 00:58 -22.447694 -9.204299 298 30020ft 464kts
10-Nov-18 00:59 -22.382424 -9.324342 298 30013ft 464kts
10-Nov-18 01:00 -22.316952 -9.444481 298 30012ft 463kts
10-Nov-18 01:01 -22.251319 -9.564641 298 30012ft 464kts
10-Nov-18 01:02 -22.185823 -9.684320 298 30014ft 463kts
10-Nov-18 01:03 -22.120378 -9.803556 298 30011ft 463kts
10-Nov-18 01:04 -22.054605 -9.923161 298 30010ft 463kts
10-Nov-18 01:05 -21.988854 -10.042462 298 30008ft 463kts
10-Nov-18 01:06 -21.922891 -10.161854 298 30010ft 463kts
10-Nov-18 01:07 -21.857022 -10.280825 298 30009ft 463kts
10-Nov-18 01:08 -21.790953 -10.399893 298 30009ft 463kts
10-Nov-18 01:09 -21.724791 -10.518866 298 30009ft 463kts
10-Nov-18 01:10 -21.658340 -10.638098 298 30008ft 464kts
10-Nov-18 01:11 -21.591956 -10.756951 298 30008ft 464kts
10-Nov-18 01:12 -21.525461 -10.875733 298 30007ft 464kts
10-Nov-18 01:13 -21.458852 -10.994496 298 30007ft 465kts
10-Nov-18 01:14 -21.392076 -11.113242 298 30006ft 464kts
10-Nov-18 01:15 -21.325457 -11.231475 298 30006ft 464kts
10-Nov-18 01:16 -21.258431 -11.350178 298 30005ft 464kts
10-Nov-18 01:17 -21.191541 -11.468387 298 30005ft 464kts
10-Nov-18 01:18 -21.124576 -11.586475 298 30005ft 464kts
10-Nov-18 01:19 -21.057442 -11.704611 298 30005ft 464kts
10-Nov-18 01:20 -20.990042 -11.822963 298 30004ft 465kts
10-Nov-18 01:21 -20.922437 -11.941426 298 30003ft 465kts
10-Nov-18 01:22 -20.855022 -12.059311 298 30003ft 465kts
10-Nov-18 01:23 -20.787265 -12.177547 298 30003ft 465kts
10-Nov-18 01:24 -20.719608 -12.295350 298 30002ft 466kts
10-Nov-18 01:25 -20.651789 -12.413192 298 30002ft 466kts
10-Nov-18 01:26 -20.583923 -12.530875 299 30002ft 466kts
10-Nov-18 01:27 -20.515783 -12.648795 299 30001ft 466kts
10-Nov-18 01:28 -20.447738 -12.766301 299 30001ft 466kts
10-Nov-18 01:29 -20.379644 -12.883639 299 30002ft 465kts
10-Nov-18 01:30 -20.311462 -13.000920 299 30001ft 465kts
10-Nov-18 01:31 -20.243363 -13.117807 299 30001ft 465kts
10-Nov-18 01:32 -20.175207 -13.234560 299 30000ft 464kts
10-Nov-18 01:33 -20.106813 -13.351483 299 30000ft 464kts
10-Nov-18 01:34 -20.038379 -13.468241 299 30000ft 465kts
10-Nov-18 01:35 -19.969909 -13.584828 299 30000ft 467kts
10-Nov-18 01:36 -19.900929 -13.702050 299 29999ft 467kts
10-Nov-18 01:37 -19.832103 -13.818779 299 29991ft 467kts
10-Nov-18 01:38 -19.763274 -13.935285 299 29992ft 466kts
10-Nov-18 01:39 -19.694233 -14.051921 299 29990ft 466kts
10-Nov-18 01:40 -19.625115 -14.168458 299 29990ft 467kts
10-Nov-18 01:41 -19.555786 -14.285125 299 29990ft 467kts
10-Nov-18 01:42 -19.486386 -14.401683 299 29988ft 468kts
10-Nov-18 01:43 -19.416762 -14.518394 299 29989ft 469kts
10-Nov-18 01:44 -19.346700 -14.635601 299 29988ft 468kts
10-Nov-18 01:45 -19.277077 -14.751870 299 29989ft 469kts
10-Nov-18 01:46 -19.207184 -14.868359 299 29988ft 469kts
10-Nov-18 01:47 -19.137025 -14.985068 299 29987ft 469kts
10-Nov-18 01:48 -19.066839 -15.101599 299 29987ft 470kts
10-Nov-18 01:49 -18.996467 -15.218220 299 29987ft 471kts
10-Nov-18 01:50 -18.926003 -15.334774 299 29987ft 471kts
10-Nov-18 01:51 -18.855447 -15.451262 299 29987ft 471kts
10-Nov-18 01:52 -18.784673 -15.567889 299 29987ft 472kts
10-Nov-18 01:53 -18.713767 -15.684520 299 29986ft 473kts
10-Nov-18 01:54 -18.642447 -15.801611 299 29986ft 473kts
10-Nov-18 01:55 -18.571265 -15.918260 299 29986ft 475kts
10-Nov-18 01:56 -18.499690 -16.035337 299 29985ft 474kts
10-Nov-18 01:57 -18.428208 -16.152047 299 29986ft 475kts
10-Nov-18 01:58 -18.356493 -16.268923 299 29985ft 475kts
10-Nov-18 01:59 -18.284681 -16.385744 300 29989ft 475kts
10-Nov-18 02:00 -18.212873 -16.502347 300 29989ft 475kts
10-Nov-18 02:01 -18.140878 -16.619043 300 29989ft 474kts
10-Nov-18 02:02 -18.068876 -16.735541 300 29989ft 474kts
10-Nov-18 02:03 -17.997152 -16.851380 300 29989ft 474kts
10-Nov-18 02:04 -17.924642 -16.968283 300 29991ft 478kts
10-Nov-18 02:05 -17.852071 -17.085076 300 29988ft 477kts
10-Nov-18 02:06 -17.779197 -17.202146 300 29989ft 478kts
10-Nov-18 02:07 -17.706403 -17.318882 300 29989ft 478kts
10-Nov-18 02:08 -17.633768 -17.435161 300 29988ft 478kts
10-Nov-18 02:09 -17.560694 -17.551936 300 29981ft 478kts
10-Nov-18 02:10 -17.487815 -17.668198 300 29980ft 478kts
10-Nov-18 02:11 -17.414856 -17.784387 300 29978ft 478kts
10-Nov-18 02:12 -17.341709 -17.900675 300 29977ft 478kts
10-Nov-18 02:13 -17.268573 -18.016749 300 29977ft 478kts
10-Nov-18 02:14 -17.195149 -18.133077 301 29989ft 478kts
10-Nov-18 02:15 -17.121861 -18.248995 301 29989ft 479kts
10-Nov-18 02:16 -17.048133 -18.365409 301 29991ft 479kts
10-Nov-18 02:17 -16.974497 -18.481485 301 29989ft 480kts
10-Nov-18 02:18 -16.913045 -18.578205 301 29989ft 480kts
10-Nov-18 02:19 -16.826687 -18.713900 301 29990ft 480kts
10-Nov-18 02:20 -16.765167 -18.810405 301 29989ft 481kts
10-Nov-18 02:21 -16.678682 -18.945850 301 29989ft 481kts
10-Nov-18 02:22 -16.616898 -19.042451 301 29989ft 481kts
10-Nov-18 02:23 -16.542514 -19.158579 301 29990ft 481kts
10-Nov-18 02:24 -16.455896 -19.293570 301 29990ft 481kts
10-Nov-18 02:25 -16.393657 -19.390409 301 29990ft 482kts
10-Nov-18 02:26 -16.306763 -19.525393 301 29990ft 482kts
10-Nov-18 02:27 -16.244513 -19.621942 301 29990ft 482kts
10-Nov-18 02:28 -16.169580 -19.738111 301 29990ft 483kts
10-Nov-18 02:29 -16.094852 -19.853704 301 29988ft 482kts
10-Nov-18 02:30 -16.019868 -19.969344 302 29988ft 482kts
10-Nov-18 02:31 -15.943923 -20.084786 302 29989ft 483kts
10-Nov-18 02:32 -15.867901 -20.199489 302 29989ft 483kts
10-Nov-18 02:33 -15.791856 -20.314228 302 29989ft 483kts
10-Nov-18 02:34 -15.715619 -20.429498 302 29989ft 483kts
10-Nov-18 02:35 -15.639493 -20.544166 302 29989ft 483kts
10-Nov-18 02:36 -15.563159 -20.658926 302 29989ft 484kts
10-Nov-18 02:37 -15.486492 -20.774003 302 29977ft 484kts
10-Nov-18 02:38 -15.410027 -20.888602 302 29977ft 483kts
10-Nov-18 02:39 -15.333583 -21.002998 302 29977ft 483kts
10-Nov-18 02:40 -15.256744 -21.117813 302 29977ft 484kts
10-Nov-18 02:41 -15.180206 -21.232007 302 29978ft 484kts
10-Nov-18 02:42 -15.103344 -21.346517 302 29978ft 484kts
10-Nov-18 02:43 -15.026505 -21.460823 302 29977ft 485kts
10-Nov-18 02:44 -14.949355 -21.575424 302 29977ft 484kts
10-Nov-18 02:45 -14.872352 -21.689640 303 29978ft 485kts
10-Nov-18 02:46 -14.795390 -21.803630 303 29978ft 484kts
10-Nov-18 02:47 -14.717992 -21.918100 303 29978ft 484kts
10-Nov-18 02:48 -14.640867 -22.032005 303 29978ft 484kts
10-Nov-18 02:49 -14.563579 -22.145988 303 29979ft 485kts
10-Nov-18 02:50 -14.485898 -22.260388 303 29979ft 485kts
10-Nov-18 02:51 -14.408497 -22.374214 303 29979ft 485kts
10-Nov-18 02:52 -14.330959 -22.488083 303 29979ft 485kts
10-Nov-18 02:53 -14.253189 -22.602134 303 29979ft 485kts
10-Nov-18 02:54 -14.175435 -22.716004 303 29979ft 485kts
10-Nov-18 02:55 -14.097925 -22.829361 303 29979ft 485kts
10-Nov-18 02:56 -14.019822 -22.943428 303 29979ft 485kts
10-Nov-18 02:57 -13.941963 -23.056985 303 29980ft 487kts
10-Nov-18 02:58 -13.863695 -23.170984 303 29980ft 487kts
10-Nov-18 02:59 -13.785513 -23.284704 303 29980ft 487kts
10-Nov-18 03:00 -13.707018 -23.398727 303 29980ft 487kts
10-Nov-18 03:01 -13.628712 -23.512324 303 29981ft 487kts
10-Nov-18 03:02 -13.550322 -23.625891 303 29981ft 487kts
10-Nov-18 03:03 -13.472016 -23.739191 303 29981ft 487kts
10-Nov-18 03:04 -13.393489 -23.852660 303 29981ft 487kts
10-Nov-18 03:05 -13.314777 -23.966249 303 29982ft 487kts
10-Nov-18 03:06 -13.236155 -24.079563 303 29982ft 488kts
10-Nov-18 03:07 -13.157351 -24.192993 303 29982ft 488kts
10-Nov-18 03:08 -13.078488 -24.306364 304 29982ft 489kts
10-Nov-18 03:09 -12.999447 -24.419846 304 29983ft 489kts
10-Nov-18 03:10 -12.920341 -24.533279 304 29983ft 489kts
10-Nov-18 03:11 -12.840958 -24.646967 304 29983ft 490kts
10-Nov-18 03:12 -12.761727 -24.760295 304 29983ft 490kts
10-Nov-18 03:13 -12.682080 -24.874078 304 29983ft 490kts
10-Nov-18 03:14 -12.602726 -24.987304 304 29991ft 491kts
10-Nov-18 03:15 -12.522939 -25.101007 304 29991ft 491kts
10-Nov-18 03:16 -12.443228 -25.214465 304 29991ft 491kts
10-Nov-18 03:17 -12.363405 -25.327944 304 29992ft 492kts
10-Nov-18 03:18 -12.283549 -25.441335 304 29992ft 492kts
10-Nov-18 03:19 -12.203400 -25.555004 304 29993ft 493kts
10-Nov-18 03:20 -12.123319 -25.668445 304 29992ft 493kts
10-Nov-18 03:21 -12.042980 -25.782116 304 29993ft 493kts
10-Nov-18 03:22 -11.962556 -25.895775 304 29993ft 493kts
10-Nov-18 03:23 -11.882121 -26.009316 304 29993ft 493kts
10-Nov-18 03:24 -11.801463 -26.123042 304 29993ft 493kts
10-Nov-18 03:25 -11.721106 -26.236213 304 29994ft 493kts
10-Nov-18 03:26 -11.640587 -26.349483 304 29994ft 493kts
10-Nov-18 03:27 -11.559837 -26.462951 304 29994ft 493kts
10-Nov-18 03:28 -11.479378 -26.575883 305 29994ft 493kts
10-Nov-18 03:29 -11.398712 -26.688980 305 29993ft 492kts
10-Nov-18 03:30 -11.318089 -26.801892 305 29993ft 492kts
10-Nov-18 03:31 -11.237509 -26.914620 305 29994ft 492kts
10-Nov-18 03:32 -11.156973 -27.027165 305 29994ft 492kts
10-Nov-18 03:33 -11.076316 -27.139757 305 29987ft 492kts
10-Nov-18 03:34 -10.995470 -27.252493 305 29987ft 492kts
10-Nov-18 03:35 -10.915026 -27.364550 305 29987ft 492kts
10-Nov-18 03:36 -10.834227 -27.476983 305 29987ft 491kts
10-Nov-18 03:37 -10.753491 -27.589212 305 29987ft 491kts
10-Nov-18 03:38 -10.672872 -27.701162 305 29987ft 491kts
10-Nov-18 03:39 -10.591861 -27.813540 305 29988ft 491kts
10-Nov-18 03:40 -10.511328 -27.925143 305 29988ft 490kts
10-Nov-18 03:41 -10.430554 -28.036966 305 29985ft 490kts
10-Nov-18 03:42 -10.350023 -28.148344 305 29989ft 490kts
10-Nov-18 03:43 -10.269370 -28.259778 305 29989ft 490kts
10-Nov-18 03:44 -10.188541 -28.371347 305 29989ft 490kts
10-Nov-18 03:45 -10.107945 -28.482486 305 29989ft 490kts
10-Nov-18 03:46 -10.027064 -28.593911 305 29989ft 490kts
10-Nov-18 03:47 -9.946144 -28.705283 306 29989ft 490kts
10-Nov-18 03:48 -9.865279 -28.816474 306 29989ft 490kts
10-Nov-18 03:49 -9.784167 -28.927899 306 29990ft 490kts
10-Nov-18 03:50 -9.703339 -29.038831 306 29990ft 490kts
10-Nov-18 03:51 -9.622106 -29.150216 306 29990ft 490kts
10-Nov-18 03:52 -9.541151 -29.261119 306 30002ft 490kts
10-Nov-18 03:53 -9.459990 -29.372204 306 30003ft 491kts
10-Nov-18 03:54 -9.378787 -29.483246 306 30003ft 491kts
10-Nov-18 03:55 -9.297293 -29.594590 306 30003ft 491kts
10-Nov-18 03:56 -9.216006 -29.705555 306 30003ft 491kts
10-Nov-18 03:57 -9.134754 -29.816481 306 30003ft 491kts
10-Nov-18 03:58 -9.053178 -29.927589 306 30003ft 491kts
10-Nov-18 03:59 -8.972649 -30.039353 304 30002ft 492kts
10-Nov-18 04:00 -8.895646 -30.153726 304 30003ft 492kts
10-Nov-18 04:01 -8.818280 -30.267879 304 30005ft 492kts
10-Nov-18 04:02 -8.740861 -30.382202 304 30003ft 492kts
10-Nov-18 04:03 -8.663618 -30.496019 304 30003ft 492kts
10-Nov-18 04:04 -8.586089 -30.610121 304 30003ft 492kts
10-Nov-18 04:05 -8.508435 -30.724302 304 30003ft 492kts
10-Nov-18 04:06 -8.431070 -30.837964 304 30003ft 492kts
10-Nov-18 04:07 -8.353409 -30.951966 305 30003ft 491kts
10-Nov-18 04:08 -8.275976 -31.065540 305 30003ft 491kts
10-Nov-18 04:09 -8.198367 -31.179282 305 30003ft 491kts
10-Nov-18 04:10 -8.120744 -31.292952 305 30003ft 491kts
10-Nov-18 04:11 -8.043334 -31.406221 305 30007ft 490kts
10-Nov-18 04:12 -7.965842 -31.519522 305 30007ft 490kts
10-Nov-18 04:13 -7.888488 -31.632533 305 30007ft 491kts
10-Nov-18 04:14 -7.810887 -31.745818 305 30008ft 487kts
10-Nov-18 04:15 -7.733911 -31.858107 305 30008ft 487kts
10-Nov-18 04:16 -7.656936 -31.970309 305 30008ft 487kts
10-Nov-18 04:17 -7.579673 -32.082849 305 30008ft 487kts
10-Nov-18 04:18 -7.502546 -32.195108 305 30008ft 487kts
10-Nov-18 04:19 -7.425129 -32.307710 305 30008ft 488kts
10-Nov-18 04:20 -7.347979 -32.419843 305 30007ft 487kts
10-Nov-18 04:21 -7.270563 -32.532283 305 29999ft 488kts
10-Nov-18 04:22 -7.193387 -32.644296 305 29999ft 487kts
10-Nov-18 04:23 -7.115988 -32.756559 305 29999ft 487kts
10-Nov-18 04:24 -7.038761 -32.868496 305 29988ft 487kts
10-Nov-18 04:25 -6.961578 -32.980367 305 29988ft 487kts
10-Nov-18 04:26 -6.884151 -33.092434 306 29988ft 486kts
10-Nov-18 04:27 -6.807036 -33.203937 306 29989ft 486kts
10-Nov-18 04:28 -6.726298 -33.312900 308 29989ft 485kts
10-Nov-18 04:29 -6.645117 -33.420762 308 29989ft 484kts
10-Nov-18 04:30 -6.563911 -33.528990 308 29990ft 483kts
10-Nov-18 04:31 -6.483257 -33.636511 308 29990ft 482kts
10-Nov-18 04:32 -6.402401 -33.744178 308 29990ft 481kts
10-Nov-18 04:33 -6.321846 -33.851373 308 29990ft 480kts
10-Nov-18 04:34 -6.241086 -33.958775 308 29991ft 480kts
10-Nov-18 04:35 -6.160835 -34.065442 308 29991ft 479kts
10-Nov-18 04:36 -6.093652 -34.154691 308 29992ft 479kts
10-Nov-18 04:37 -5.999751 -34.279363 308 29992ft 480kts
10-Nov-18 04:38 -5.932678 -34.368369 308 29992ft 479kts
10-Nov-18 04:39 -5.838509 -34.493261 308 29980ft 480kts
10-Nov-18 04:40 -5.771235 -34.582437 308 29980ft 480kts
10-Nov-18 04:41 -5.677121 -34.707124 308 29991ft 481kts
10-Nov-18 04:42 -5.609889 -34.796152 308 29994ft 481kts
10-Nov-18 04:43 -5.528827 -34.903444 308 29992ft 482kts
10-Nov-18 04:44 -5.447754 -35.010699 308 29966ft 482kts
10-Nov-18 04:45 -5.366784 -35.117821 308 29966ft 482kts
10-Nov-18 04:46 -5.285498 -35.225223 308 29966ft 483kts
10-Nov-18 04:47 -5.205737 -35.333571 305 29975ft 483kts
10-Nov-18 04:48 -5.129312 -35.444335 305 29970ft 483kts
10-Nov-18 04:49 -5.052493 -35.554949 305 29972ft 482kts
10-Nov-18 04:50 -4.975897 -35.665254 305 29974ft 482kts
10-Nov-18 04:51 -4.899313 -35.775394 305 29975ft 481kts
10-Nov-18 04:52 -4.822566 -35.885693 305 29972ft 481kts
10-Nov-18 04:53 -4.746143 -35.995474 305 29971ft 480kts
10-Nov-18 04:54 -4.669455 -36.105582 305 29972ft 484kts
10-Nov-18 04:55 -4.592461 -36.216085 305 29973ft 482kts
10-Nov-18 04:56 -4.515752 -36.326129 305 29974ft 482kts
10-Nov-18 04:57 -4.438680 -36.436647 305 29975ft 482kts
10-Nov-18 04:58 -4.361887 -36.546718 305 29975ft 483kts
10-Nov-18 04:59 -4.284615 -36.657430 305 29969ft 484kts
10-Nov-18 05:00 -4.207331 -36.768114 305 29968ft 486kts
10-Nov-18 05:01 -4.129890 -36.878979 305 29968ft 487kts
10-Nov-18 05:02 -4.052107 -36.990289 305 29968ft 489kts
10-Nov-18 05:03 -3.973935 -37.102113 305 29967ft 488kts
10-Nov-18 05:04 -3.895927 -37.213659 305 29967ft 489kts
10-Nov-18 05:05 -3.817792 -37.325347 304 29966ft 491kts
10-Nov-18 05:06 -3.739427 -37.437322 304 29963ft 492kts
10-Nov-18 05:07 -3.660632 -37.549873 304 29962ft 493kts
10-Nov-18 05:08 -3.581889 -37.662308 304 29962ft 493kts
10-Nov-18 05:09 -3.502899 -37.775060 304 29962ft 494kts
10-Nov-18 05:10 -3.424171 -37.887401 304 29962ft 493kts
10-Nov-18 05:11 -3.345510 -37.999646 304 29962ft 493kts
10-Nov-18 05:12 -3.266263 -38.112656 304 29962ft 496kts
10-Nov-18 05:13 -3.187605 -38.225376 301 29960ft 495kts
10-Nov-18 05:14 -3.126135 -38.348794 294 29962ft 494kts
10-Nov-18 05:15 -3.068085 -38.473124 295 29961ft 494kts
10-Nov-18 05:16 -3.009434 -38.597507 295 29964ft 494kts
10-Nov-18 05:17 -2.950687 -38.721870 295 29964ft 494kts
10-Nov-18 05:18 -2.891689 -38.846648 295 29955ft 495kts
10-Nov-18 05:19 -2.832868 -38.970999 295 29955ft 495kts
10-Nov-18 05:20 -2.773930 -39.095554 295 29953ft 496kts
10-Nov-18 05:21 -2.714668 -39.220753 295 29950ft 496kts
10-Nov-18 05:22 -2.655645 -39.345406 295 29947ft 496kts
10-Nov-18 05:23 -2.596477 -39.470329 295 29946ft 496kts
10-Nov-18 05:24 -2.537424 -39.594971 295 29943ft 497kts
10-Nov-18 05:25 -2.478254 -39.719822 295 29940ft 496kts
10-Nov-18 05:26 -2.419294 -39.844196 295 29936ft 496kts
10-Nov-18 05:27 -2.360035 -39.969166 295 29933ft 496kts
10-Nov-18 05:28 -2.301029 -40.093567 295 29930ft 496kts
10-Nov-18 05:29 -2.241915 -40.218162 295 29926ft 496kts
10-Nov-18 05:30 -2.182904 -40.342509 295 29924ft 496kts
10-Nov-18 05:31 -2.123500 -40.467652 295 29921ft 496kts
10-Nov-18 05:32 -2.064347 -40.592235 295 29918ft 498kts
10-Nov-18 05:33 -2.004741 -40.717743 295 29917ft 499kts
10-Nov-18 05:34 -1.945318 -40.842836 295 29915ft 497kts
10-Nov-18 05:35 -1.885858 -40.967978 295 29914ft 498kts
10-Nov-18 05:36 -1.826457 -41.092970 295 29914ft 499kts
10-Nov-18 05:37 -1.766680 -41.218725 295 29913ft 500kts
10-Nov-18 05:38 -1.707018 -41.344213 295 29912ft 501kts
10-Nov-18 05:39 -1.647037 -41.470345 295 29914ft 502kts
10-Nov-18 05:40 -1.587140 -41.596278 295 29913ft 502kts
10-Nov-18 05:41 -1.527001 -41.722696 295 29912ft 503kts
10-Nov-18 05:42 -1.466931 -41.848947 295 29906ft 503kts
10-Nov-18 05:43 -1.406911 -41.975073 295 29906ft 503kts
10-Nov-18 05:44 -1.346707 -42.101559 295 29908ft 503kts
10-Nov-18 05:45 -1.286627 -42.227769 295 29907ft 503kts
10-Nov-18 05:46 -1.226611 -42.353826 295 29907ft 502kts
10-Nov-18 05:47 -1.166640 -42.479769 295 29907ft 502kts
10-Nov-18 05:48 -1.106664 -42.605706 295 29907ft 501kts
10-Nov-18 05:49 -1.046776 -42.731444 295 29907ft 501kts
10-Nov-18 05:50 -0.986827 -42.857296 295 29907ft 501kts
10-Nov-18 05:51 -0.926898 -42.983090 295 29908ft 501kts
10-Nov-18 05:52 -0.867176 -43.108439 295 29907ft 501kts
10-Nov-18 05:53 -0.807320 -43.234060 295 29907ft 501kts
10-Nov-18 05:54 -0.747319 -43.359989 295 29908ft 500kts
10-Nov-18 05:55 -0.687482 -43.485553 295 29908ft 500kts
10-Nov-18 05:56 -0.621167 -43.607512 308 29911ft 500kts
10-Nov-18 05:57 -0.529501 -43.711370 312 29909ft 499kts
10-Nov-18 05:58 -0.436698 -43.814954 311 29909ft 499kts
10-Nov-18 05:59 -0.344492 -43.918488 311 29909ft 498kts
10-Nov-18 06:00 -0.252367 -44.021997 311 29910ft 498kts
10-Nov-18 06:01 -0.160513 -44.125206 311 29910ft 498kts
10-Nov-18 06:02 -0.068382 -44.228726 311 29912ft 498kts
10-Nov-18 06:03 0.023935 -44.332455 311 29918ft 498kts
10-Nov-18 06:04 0.115934 -44.435828 311 29920ft 498kts
10-Nov-18 06:05 0.207924 -44.539192 311 29921ft 498kts
10-Nov-18 06:06 0.300354 -44.643053 311 29922ft 499kts
10-Nov-18 06:07 0.392455 -44.746550 311 29923ft 499kts
10-Nov-18 06:08 0.484720 -44.850235 311 29924ft 499kts
10-Nov-18 06:09 0.577079 -44.954036 311 29925ft 499kts
10-Nov-18 06:10 0.669609 -45.058040 311 29926ft 500kts
10-Nov-18 06:11 0.762043 -45.161895 311 29927ft 500kts
10-Nov-18 06:12 0.854420 -45.265736 311 29928ft 500kts
10-Nov-18 06:13 0.946879 -45.369671 311 29929ft 500kts
10-Nov-18 06:14 1.039263 -45.473474 311 29930ft 500kts
10-Nov-18 06:15 1.131794 -45.577492 311 29931ft 500kts
10-Nov-18 06:16 1.224466 -45.681672 311 29932ft 500kts
10-Nov-18 06:17 1.316701 -45.785375 311 29933ft 500kts
10-Nov-18 06:18 1.409163 -45.889350 311 29934ft 500kts
10-Nov-18 06:19 1.501549 -45.993257 311 29935ft 500kts
10-Nov-18 06:20 1.594104 -46.097368 311 29936ft 501kts
10-Nov-18 06:21 1.686433 -46.201241 311 29937ft 501kts
10-Nov-18 06:22 1.779108 -46.305521 311 29938ft 501kts
10-Nov-18 06:23 1.871771 -46.409791 311 29939ft 501kts
10-Nov-18 06:24 1.964150 -46.513793 311 29940ft 501kts
10-Nov-18 06:25 2.056777 -46.618069 311 29941ft 501kts
10-Nov-18 06:26 2.149412 -46.721998 311 29943ft 501kts
10-Nov-18 06:27 2.242160 -46.826145 311 29944ft 502kts
10-Nov-18 06:28 2.334988 -46.930367 311 29945ft 503kts
10-Nov-18 06:29 2.427959 -47.034783 311 29939ft 503kts
10-Nov-18 06:30 2.521049 -47.139367 311 29938ft 503kts
10-Nov-18 06:31 2.614222 -47.244070 311 29939ft 503kts
10-Nov-18 06:32 2.707348 -47.348746 311 29938ft 503kts
10-Nov-18 06:33 2.800319 -47.453274 311 29940ft 503kts
10-Nov-18 06:34 2.893375 -47.557925 311 29941ft 503kts
10-Nov-18 06:35 2.986732 -47.662942 311 29942ft 503kts
10-Nov-18 06:36 3.079482 -47.767307 311 29952ft 503kts
10-Nov-18 06:37 3.172189 -47.871651 311 29955ft 502kts
10-Nov-18 06:38 3.265136 -47.976297 311 29955ft 501kts
10-Nov-18 06:39 3.357755 -48.080605 311 29956ft 502kts
10-Nov-18 06:40 3.450601 -48.185201 311 29956ft 502kts
10-Nov-18 06:41 3.543206 -48.289559 311 29957ft 501kts
10-Nov-18 06:42 3.635989 -48.394152 311 29957ft 501kts
10-Nov-18 06:43 3.728662 -48.498657 311 29958ft 501kts
10-Nov-18 06:44 3.821072 -48.602901 311 29958ft 501kts
10-Nov-18 06:45 3.913749 -48.707483 311 29959ft 502kts
10-Nov-18 06:46 4.006461 -48.812142 311 29960ft 502kts
10-Nov-18 06:47 4.099051 -48.916703 310 29960ft 500kts
10-Nov-18 06:48 4.191373 -49.021001 310 29958ft 501kts
10-Nov-18 06:49 4.268294 -49.107933 310 29960ft 501kts
10-Nov-18 06:50 4.376134 -49.229856 310 29961ft 501kts
10-Nov-18 06:51 4.468744 -49.334608 310 29961ft 501kts
10-Nov-18 06:52 4.561137 -49.439117 310 29961ft 501kts
10-Nov-18 06:53 4.638011 -49.526166 310 29961ft 501kts
10-Nov-18 06:54 4.746301 -49.648381 312 29962ft 501kts
10-Nov-18 06:55 4.826911 -49.732023 313 29962ft 501kts
10-Nov-18 06:56 4.939883 -49.849621 312 29965ft 501kts
10-Nov-18 06:57 5.020498 -49.933690 312 29966ft 501kts
10-Nov-18 06:58 5.116929 -50.034342 312 29966ft 502kts
10-Nov-18 06:59 5.213853 -50.135587 312 29966ft 502kts
10-Nov-18 07:00 5.310511 -50.236607 312 29966ft 502kts
10-Nov-18 07:01 5.407125 -50.337630 312 29966ft 502kts
10-Nov-18 07:02 5.503529 -50.438484 312 29962ft 502kts
10-Nov-18 07:03 5.600322 -50.539795 312 29963ft 502kts
10-Nov-18 07:04 5.696949 -50.640985 312 29962ft 502kts
10-Nov-18 07:05 5.793606 -50.742258 312 29962ft 502kts
10-Nov-18 07:06 5.890109 -50.843424 312 29963ft 502kts
10-Nov-18 07:07 5.986967 -50.945017 312 29962ft 503kts
10-Nov-18 07:08 6.083524 -51.046349 312 29963ft 502kts
10-Nov-18 07:09 6.179900 -51.147549 312 29964ft 502kts
10-Nov-18 07:10 6.276781 -51.249338 312 29964ft 502kts
10-Nov-18 07:11 6.373188 -51.350688 312 29964ft 503kts
10-Nov-18 07:12 6.470032 -51.452558 312 29964ft 503kts
10-Nov-18 07:13 6.566692 -51.554248 312 29964ft 503kts
10-Nov-18 07:14 6.663022 -51.655753 312 29963ft 503kts
10-Nov-18 07:15 6.757222 -51.759981 308 29963ft 502kts
10-Nov-18 07:16 6.846601 -51.867402 308 29969ft 501kts
10-Nov-18 07:17 6.936501 -51.974562 308 29965ft 501kts
10-Nov-18 07:18 7.026837 -52.081977 308 29965ft 502kts
10-Nov-18 07:19 7.116701 -52.188985 308 29965ft 501kts
10-Nov-18 07:20 7.206854 -52.296420 308 29965ft 501kts
10-Nov-18 07:21 7.296688 -52.403550 308 29965ft 500kts
10-Nov-18 07:22 7.386399 -52.510607 308 29965ft 500kts
10-Nov-18 07:23 7.476093 -52.617718 308 29966ft 500kts
10-Nov-18 07:24 7.565900 -52.725038 308 29966ft 500kts
10-Nov-18 07:25 7.655595 -52.832301 308 29966ft 500kts
10-Nov-18 07:26 7.745056 -52.939360 308 29966ft 500kts
10-Nov-18 07:27 7.834770 -53.046800 308 29966ft 500kts
10-Nov-18 07:28 7.924283 -53.154078 308 29966ft 500kts
10-Nov-18 07:29 8.013776 -53.261409 308 29967ft 499kts
10-Nov-18 07:30 8.102869 -53.368346 308 29966ft 497kts
10-Nov-18 07:31 8.191871 -53.475251 308 29966ft 497kts
10-Nov-18 07:32 8.280644 -53.581964 308 29967ft 497kts
10-Nov-18 07:33 8.369482 -53.688836 308 29967ft 497kts
10-Nov-18 07:34 8.458391 -53.795879 308 29967ft 497kts
10-Nov-18 07:35 8.547262 -53.902959 308 29967ft 497kts
10-Nov-18 07:36 8.636037 -54.010009 308 29967ft 496kts
10-Nov-18 07:37 8.724584 -54.116873 308 29967ft 496kts
10-Nov-18 07:38 8.813005 -54.223670 308 29968ft 495kts
10-Nov-18 07:39 8.901494 -54.330640 308 29968ft 494kts
10-Nov-18 07:40 8.989668 -54.437318 308 29968ft 494kts
10-Nov-18 07:41 9.077744 -54.543877 308 29969ft 493kts
10-Nov-18 07:42 9.165563 -54.650373 308 29969ft 493kts
10-Nov-18 07:43 9.253201 -54.756646 308 29969ft 492kts
10-Nov-18 07:44 9.341120 -54.863145 308 29964ft 491kts
10-Nov-18 07:45 9.428504 -54.969165 308 29963ft 490kts
10-Nov-18 07:46 9.515786 -55.074933 308 29964ft 489kts
10-Nov-18 07:47 9.602993 -55.180764 308 29967ft 489kts
10-Nov-18 07:48 9.690224 -55.286766 308 29961ft 489kts
10-Nov-18 07:49 9.777506 -55.392932 308 29961ft 489kts
10-Nov-18 07:50 9.864480 -55.498821 308 29961ft 489kts
10-Nov-18 07:51 9.951573 -55.604951 308 29962ft 488kts
10-Nov-18 07:52 10.038360 -55.710806 308 29962ft 488kts
10-Nov-18 07:53 10.125247 -55.816881 308 29963ft 488kts
10-Nov-18 07:54 10.211921 -55.922794 308 29963ft 488kts
10-Nov-18 07:55 10.298483 -56.028670 308 29964ft 488kts
10-Nov-18 07:56 10.385512 -56.135217 308 29965ft 489kts
10-Nov-18 07:57 10.472116 -56.241346 308 29965ft 489kts
10-Nov-18 07:58 10.558872 -56.347764 308 29966ft 489kts
10-Nov-18 07:59 10.645971 -56.454708 308 29967ft 490kts
10-Nov-18 08:00 10.732643 -56.561232 308 29968ft 490kts
10-Nov-18 08:01 10.819735 -56.668379 308 29970ft 491kts
10-Nov-18 08:02 10.906706 -56.775484 308 29977ft 491kts
10-Nov-18 08:03 10.993748 -56.882786 308 29979ft 491kts
10-Nov-18 08:04 11.080519 -56.989863 308 29980ft 490kts
10-Nov-18 08:05 11.167187 -57.096923 308 29980ft 490kts
10-Nov-18 08:06 11.254120 -57.204421 308 29979ft 490kts
10-Nov-18 08:07 11.340761 -57.311671 308 29980ft 490kts
10-Nov-18 08:08 11.427025 -57.418567 308 29980ft 489kts
10-Nov-18 08:09 11.513469 -57.525799 308 29981ft 488kts
10-Nov-18 08:10 11.599515 -57.632652 308 29982ft 488kts
10-Nov-18 08:11 11.685403 -57.739422 308 29982ft 487kts
10-Nov-18 08:12 11.771184 -57.846176 308 29983ft 486kts
10-Nov-18 08:13 11.856884 -57.952944 308 29983ft 485kts
10-Nov-18 08:14 11.942562 -58.059801 308 29962ft 485kts
10-Nov-18 08:15 12.027902 -58.166355 308 29962ft 485kts
10-Nov-18 08:16 12.113527 -58.273383 308 29962ft 486kts
10-Nov-18 08:17 12.199058 -58.380415 308 29962ft 486kts
10-Nov-18 08:18 12.284712 -58.487721 308 29963ft 488kts
10-Nov-18 08:19 12.370738 -58.595617 308 29963ft 489kts
10-Nov-18 08:20 12.456709 -58.703569 308 29963ft 490kts
10-Nov-18 08:21 12.542645 -58.811603 308 29963ft 491kts
10-Nov-18 08:22 12.628820 -58.920064 308 29964ft 491kts
10-Nov-18 08:23 12.714991 -59.028650 308 29964ft 492kts
10-Nov-18 08:24 12.801473 -59.137760 308 29962ft 492kts
10-Nov-18 08:25 12.887696 -59.246583 308 29964ft 492kts
10-Nov-18 08:26 12.973762 -59.355440 308 29964ft 492kts
10-Nov-18 08:27 13.060059 -59.464791 308 29964ft 493kts
10-Nov-18 08:28 13.143077 -59.576630 306 29964ft 493kts
10-Nov-18 08:29 13.224917 -59.689492 306 29964ft 493kts
10-Nov-18 08:30 13.306868 -59.802160 306 29965ft 493kts
10-Nov-18 08:31 13.388898 -59.914866 306 29967ft 493kts
10-Nov-18 08:32 13.470802 -60.027687 306 29967ft 492kts
10-Nov-18 08:33 13.552474 -60.140364 306 29969ft 492kts
10-Nov-18 08:34 13.634358 -60.253483 306 29969ft 492kts
10-Nov-18 08:35 13.715839 -60.366193 306 29969ft 492kts
10-Nov-18 08:36 13.797632 -60.479486 306 29964ft 492kts
10-Nov-18 08:37 13.879118 -60.592503 305 29964ft 491kts
10-Nov-18 08:38 13.960353 -60.705323 305 29964ft 491kts
10-Nov-18 08:39 14.041593 -60.818298 305 29964ft 491kts
10-Nov-18 08:40 14.122808 -60.931400 305 29964ft 491kts
10-Nov-18 08:41 14.203982 -61.044595 305 29964ft 491kts
10-Nov-18 08:42 14.285167 -61.157960 305 29963ft 491kts
10-Nov-18 08:43 14.366198 -61.271268 305 29962ft 490kts
10-Nov-18 08:44 14.447060 -61.384496 304 29960ft 490kts
10-Nov-18 08:45 14.527726 -61.497607 304 29965ft 490kts
10-Nov-18 08:46 14.608612 -61.611186 304 29963ft 490kts
10-Nov-18 08:47 14.689315 -61.724668 304 29952ft 490kts
10-Nov-18 08:48 14.769667 -61.837818 304 29950ft 490kts
10-Nov-18 08:49 14.850316 -61.951549 304 29949ft 490kts
10-Nov-18 08:50 14.930851 -62.065278 304 29949ft 489kts
10-Nov-18 08:51 15.011376 -62.179165 304 29950ft 490kts
10-Nov-18 08:52 15.091725 -62.292966 303 29952ft 490kts
10-Nov-18 08:53 15.172032 -62.406872 303 29955ft 490kts
10-Nov-18 08:54 15.252192 -62.520741 303 29957ft 490kts
10-Nov-18 08:55 15.332527 -62.635023 303 29954ft 490kts
10-Nov-18 08:56 15.412499 -62.748964 303 29967ft 489kts
10-Nov-18 08:57 15.492650 -62.863326 303 29969ft 489kts
10-Nov-18 08:58 15.572349 -62.977218 303 29972ft 488kts
10-Nov-18 08:59 15.652187 -63.091479 303 29972ft 487kts
10-Nov-18 09:00 15.731612 -63.205323 303 29976ft 486kts
10-Nov-18 09:01 15.810805 -63.319007 303 29978ft 486kts
10-Nov-18 09:02 15.890024 -63.432903 302 29980ft 485kts
10-Nov-18 09:03 15.968781 -63.546309 302 29992ft 484kts
10-Nov-18 09:04 16.034545 -63.641139 302 29997ft 484kts
10-Nov-18 09:05 16.126160 -63.773452 302 29986ft 483kts
10-Nov-18 09:06 16.204677 -63.887040 302 29988ft 483kts
10-Nov-18 09:07 16.269956 -63.981611 302 29989ft 483kts
10-Nov-18 09:08 16.348389 -64.095403 302 29998ft 483kts
10-Nov-18 09:09 16.439622 -64.227994 302 29999ft 483kts
10-Nov-18 09:10 16.504978 -64.323127 302 30000ft 483kts
10-Nov-18 09:11 16.582907 -64.436729 302 30001ft 482kts
10-Nov-18 09:12 16.661058 -64.550837 302 30002ft 482kts
10-Nov-18 09:13 16.751938 -64.683764 302 30014ft 482kts
10-Nov-18 09:14 16.816664 -64.778589 302 29995ft 482kts
10-Nov-18 09:15 16.894299 -64.892498 302 29988ft 482kts
10-Nov-18 09:16 16.971985 -65.006667 302 29992ft 481kts
10-Nov-18 09:17 17.049553 -65.120853 302 29993ft 481kts
10-Nov-18 09:18 17.126836 -65.234806 302 29994ft 480kts
10-Nov-18 09:19 17.203978 -65.348742 302 29994ft 480kts
10-Nov-18 09:20 17.281146 -65.462909 302 29997ft 480kts
10-Nov-18 09:21 17.358129 -65.576773 302 29997ft 480kts
10-Nov-18 09:22 17.434873 -65.690848 302 30000ft 479kts
10-Nov-18 09:23 17.509953 -65.806133 298 29999ft 478kts
10-Nov-18 09:24 17.575671 -65.926832 297 29999ft 477kts
10-Nov-18 09:25 17.641481 -66.047352 297 30007ft 476kts
10-Nov-18 09:26 17.707723 -66.167893 297 29999ft 476kts
10-Nov-18 09:27 17.773642 -66.288143 297 30008ft 476kts
10-Nov-18 09:28 17.839396 -66.408454 297 30009ft 476kts
10-Nov-18 09:29 17.905292 -66.529269 297 30008ft 475kts
10-Nov-18 09:30 17.970906 -66.649798 297 30012ft 475kts
10-Nov-18 09:31 18.036362 -66.770263 298 30013ft 476kts
10-Nov-18 09:32 18.101962 -66.891219 298 30017ft 475kts
10-Nov-18 09:33 18.167489 -67.012270 298 30017ft 475kts
10-Nov-18 09:34 18.232679 -67.132931 298 30018ft 475kts
10-Nov-18 09:35 18.297875 -67.253831 298 30018ft 475kts
10-Nov-18 09:36 18.362923 -67.374690 298 30018ft 475kts
10-Nov-18 09:37 18.428077 -67.495980 298 30016ft 475kts
10-Nov-18 09:38 18.493018 -67.617106 298 30013ft 474kts
10-Nov-18 09:39 18.557756 -67.738090 298 30009ft 474kts
10-Nov-18 09:40 18.622459 -67.859244 298 30002ft 474kts
10-Nov-18 09:41 18.687126 -67.980571 298 29998ft 474kts
10-Nov-18 09:42 18.751563 -68.101706 298 29996ft 473kts
10-Nov-18 09:43 18.815996 -68.223070 298 29995ft 474kts
10-Nov-18 09:44 18.880443 -68.344704 298 29995ft 474kts
10-Nov-18 09:45 18.944564 -68.465966 298 29999ft 474kts
10-Nov-18 09:46 19.008808 -68.587420 298 30002ft 473kts
10-Nov-18 09:47 19.072925 -68.709285 298 30002ft 473kts
10-Nov-18 09:48 19.136650 -68.831023 296 30000ft 473kts
10-Nov-18 09:49 19.185657 -68.959900 290 30000ft 473kts
10-Nov-18 09:50 19.232261 -69.090159 291 30003ft 473kts
10-Nov-18 09:51 19.279222 -69.219928 291 29997ft 473kts
10-Nov-18 09:52 19.326387 -69.350297 291 29995ft 473kts
10-Nov-18 09:53 19.373286 -69.480123 291 30001ft 472kts
10-Nov-18 09:54 19.419832 -69.610088 291 30012ft 472kts
10-Nov-18 09:55 19.466423 -69.740469 291 30017ft 472kts
10-Nov-18 09:56 19.512600 -69.870692 291 30020ft 472kts
10-Nov-18 09:57 19.558622 -70.000906 291 30018ft 472kts
10-Nov-18 09:58 19.604804 -70.131081 291 30016ft 472kts
10-Nov-18 09:59 19.650860 -70.261361 291 30015ft 472kts
10-Nov-18 10:00 19.696846 -70.391919 291 30017ft 472kts
10-Nov-18 10:01 19.742575 -70.522621 291 30022ft 472kts
10-Nov-18 10:02 19.791453 -70.651659 294 30021ft 472kts
10-Nov-18 10:03 19.842400 -70.780021 293 30023ft 471kts
10-Nov-18 10:04 19.892697 -70.908295 293 30023ft 471kts
10-Nov-18 10:05 19.941756 -71.037104 293 30023ft 470kts
10-Nov-18 10:06 19.991786 -71.165890 293 30023ft 470kts
10-Nov-18 10:07 20.041553 -71.294494 294 30024ft 471kts
10-Nov-18 10:08 20.091629 -71.423066 294 30023ft 470kts
10-Nov-18 10:09 20.141201 -71.551610 294 30023ft 470kts
10-Nov-18 10:10 20.190737 -71.680521 294 30023ft 469kts
10-Nov-18 10:11 20.243598 -71.807514 295 30023ft 469kts
10-Nov-18 10:12 20.295222 -71.935339 294 30023ft 469kts
10-Nov-18 10:13 20.345109 -72.063692 294 30023ft 469kts
10-Nov-18 10:14 20.394957 -72.192619 294 30017ft 471kts
10-Nov-18 10:15 20.456303 -72.315345 305 30016ft 469kts
10-Nov-18 10:16 20.528721 -72.430963 305 30014ft 468kts
10-Nov-18 10:17 20.600251 -72.547058 304 30012ft 468kts
10-Nov-18 10:18 20.671815 -72.662934 304 30010ft 468kts
10-Nov-18 10:19 20.743159 -72.779136 304 30008ft 468kts
10-Nov-18 10:20 20.814489 -72.895650 304 30007ft 467kts
10-Nov-18 10:21 20.885536 -73.011956 304 30008ft 467kts
10-Nov-18 10:22 20.956550 -73.128449 304 30005ft 468kts
10-Nov-18 10:23 21.027458 -73.245011 304 30005ft 468kts
10-Nov-18 10:24 21.098428 -73.361916 304 30005ft 467kts
10-Nov-18 10:25 21.169075 -73.478532 304 30005ft 468kts
10-Nov-18 10:26 21.240036 -73.595910 303 30005ft 468kts
10-Nov-18 10:27 21.310639 -73.712945 303 30005ft 468kts
10-Nov-18 10:28 21.381259 -73.830253 303 30005ft 468kts
10-Nov-18 10:29 21.452018 -73.948044 303 30006ft 469kts
10-Nov-18 10:30 21.522581 -74.065758 303 30005ft 468kts
10-Nov-18 10:31 21.593034 -74.183543 303 30006ft 469kts
10-Nov-18 10:32 21.663681 -74.301908 303 30006ft 469kts
10-Nov-18 10:33 21.734028 -74.420024 303 30007ft 469kts
10-Nov-18 10:34 21.804384 -74.538413 303 30005ft 468kts
10-Nov-18 10:35 21.874472 -74.656611 303 30017ft 468kts
10-Nov-18 10:36 21.944439 -74.774734 303 30019ft 468kts
10-Nov-18 10:37 22.014415 -74.893147 302 30020ft 468kts
10-Nov-18 10:38 22.084215 -75.011859 302 30021ft 469kts
10-Nov-18 10:39 22.165175 -75.122066 312 30022ft 469kts
10-Nov-18 10:40 22.253711 -75.224921 312 30022ft 469kts
10-Nov-18 10:41 22.341957 -75.328952 312 30023ft 469kts
10-Nov-18 10:42 22.430176 -75.432757 312 30024ft 469kts
10-Nov-18 10:43 22.518106 -75.536783 311 30030ft 468kts
10-Nov-18 10:44 22.605676 -75.640635 311 30035ft 467kts
10-Nov-18 10:45 22.693510 -75.744848 311 30037ft 467kts
10-Nov-18 10:46 22.780797 -75.848808 311 30038ft 467kts
10-Nov-18 10:47 22.868310 -75.953376 311 30040ft 467kts
10-Nov-18 10:48 22.958434 -76.055097 314 30044ft 468kts
10-Nov-18 10:49 23.049915 -76.155558 313 30055ft 468kts
10-Nov-18 10:50 23.141299 -76.256423 313 30060ft 468kts
10-Nov-18 10:51 23.232910 -76.357328 313 30063ft 468kts
10-Nov-18 10:52 23.324077 -76.458260 313 30064ft 468kts
10-Nov-18 10:53 23.415247 -76.559446 313 30068ft 468kts
10-Nov-18 10:54 23.506275 -76.660692 313 30069ft 467kts
10-Nov-18 10:55 23.597178 -76.762014 313 30071ft 467kts
10-Nov-18 10:56 23.688106 -76.863578 313 30074ft 467kts
10-Nov-18 10:57 23.778826 -76.965126 313 30077ft 467kts
10-Nov-18 10:58 23.869569 -77.066916 313 30079ft 467kts
10-Nov-18 10:59 23.960070 -77.168468 313 30082ft 466kts
10-Nov-18 11:00 24.050487 -77.270366 312 30085ft 466kts
10-Nov-18 11:01 24.140476 -77.372096 312 30087ft 466kts
10-Nov-18 11:02 24.208757 -77.491176 295 30089ft 464kts
10-Nov-18 11:03 24.264137 -77.618480 295 30092ft 463kts
10-Nov-18 11:04 24.319580 -77.746145 295 30091ft 462kts
10-Nov-18 11:05 24.374732 -77.873469 294 30091ft 462kts
10-Nov-18 11:06 24.429931 -78.001255 294 30091ft 462kts
10-Nov-18 11:07 24.484963 -78.129016 294 30091ft 462kts
10-Nov-18 11:08 24.539773 -78.256622 294 30090ft 462kts
10-Nov-18 11:09 24.594471 -78.384329 294 30090ft 462kts
10-Nov-18 11:10 24.649192 -78.512451 294 30091ft 462kts
10-Nov-18 11:11 24.703586 -78.640176 294 30089ft 462kts
10-Nov-18 11:12 24.757965 -78.768229 294 30093ft 462kts
10-Nov-18 11:13 24.812512 -78.896682 294 30095ft 462kts
10-Nov-18 11:14 24.866698 -79.024943 294 30086ft 462kts
10-Nov-18 11:15 24.920567 -79.153172 294 30087ft 462kts
10-Nov-18 11:16 24.998155 -79.265897 311 30089ft 465kts
10-Nov-18 11:17 25.087334 -79.369147 311 30091ft 465kts
10-Nov-18 11:18 25.140544 -79.431742 311 30091ft 464kts
10-Nov-18 11:19 25.140544 -79.431742 311 30091ft 464kts
10-Nov-18 11:20 25.140544 -79.431742 311 30091ft 464kts
10-Nov-18 11:21 25.140544 -79.431742 311 30091ft 464kts
10-Nov-18 11:22 25.140544 -79.431742 311 30091ft 464kts
10-Nov-18 11:23 25.140544 -79.431742 311 30091ft 464kts
10-Nov-18 11:24 25.140544 -79.431742 311 30091ft 464kts
10-Nov-18 11:25 25.140544 -79.431742 311 30091ft 464kts
10-Nov-18 11:26 25.140544 -79.431742 311 30091ft 464kts
10-Nov-18 11:27 25.140544 -79.431742 311 30091ft 464kts
10-Nov-18 11:28 25.140544 -79.431742 311 30091ft 464kts
10-Nov-18 11:29 25.140544 -79.431742 311 30091ft 464kts
10-Nov-18 11:30 25.140544 -79.431742 311 30091ft 464kts
10-Nov-18 11:31 25.168959 -79.465235 311 30092ft 464kts
10-Nov-18 11:32 25.257530 -79.569143 311 29977ft 463kts
10-Nov-18 11:33 25.342071 -79.669277 311 28204ft 450kts
10-Nov-18 11:34 25.422632 -79.772674 305 25462ft 433kts
10-Nov-18 11:35 25.491683 -79.878785 306 22620ft 418kts
10-Nov-18 11:36 25.559162 -79.981318 306 19864ft 404kts
10-Nov-18 11:37 25.624295 -80.080648 306 17225ft 391kts
10-Nov-18 11:38 25.675440 -80.183819 287 14665ft 379kts
10-Nov-18 11:39 25.703366 -80.294576 286 12241ft 367kts
10-Nov-18 11:40 25.708074 -80.395695 267 11711ft 289kts
10-Nov-18 11:41 25.703444 -80.474764 267 11027ft 235kts
10-Nov-18 11:42 25.704340 -80.546606 295 9722ft 231kts
10-Nov-18 11:43 25.755112 -80.548420 47 8081ft 217kts
10-Nov-18 11:44 25.779963 -80.497281 81 6653ft 162kts
10-Nov-18 11:45 25.780766 -80.444303 85 4323ft 176kts
10-Nov-18 11:46 25.782909 -80.391765 86 2191ft 177kts
10-Nov-18 11:47 25.785065 -80.339706 87 511ft 143kts
10-Nov-18 11:48 25.786694 -80.300415 88 22ft 88kts
10-Nov-18 11:49 25.787784 -80.291845 21 21ft 0kts
10-Nov-18 11:50 25.787913 -80.291793 17 21ft 11kts
10-Nov-18 11:51 25.789207 -80.301081 339 21ft 12kts

Navigation Log

Ident Type
Flight plan parsing failed, navigation log unavailable